Time;durP1;ratioP1;P1;durP2;ratioP2;P2;SDS_P1;SDS_P2;PMS_P1;PMS_P2;Temp;Humidity;BMP_temperature;BMP_pressure;BME280_temperature;BME280_humidity;BME280_pressure;Samples;Min_cycle;Max_cycle;Signal;HPM_P1;HPM_P2
2022/03/18 00:00:26;;;;;;;6.40;2.42;;;;;;;7.10;47.09;103804.59;4957162;28;123328;-61
2022/03/18 00:02:54;;;;;;;5.57;2.63;;;;;;;7.06;47.32;103805.38;4959555;28;114317;-61
2022/03/18 00:05:24;;;;;;;6.72;2.55;;;;;;;7.03;47.07;103818.53;4962223;28;115103;-60
2022/03/18 00:07:52;;;;;;;5.40;2.70;;;;;;;6.99;47.43;103821.97;4950189;28;123915;-60
2022/03/18 00:10:19;;;;;;;7.13;3.55;;;;;;;6.94;47.37;103823.63;4959427;28;123887;-60
2022/03/18 00:12:48;;;;;;;12.63;4.15;;;;;;;6.89;47.18;103820.00;4962337;28;114062;-61
2022/03/18 00:15:15;;;;;;;15.13;5.35;;;;;;;6.83;47.25;103821.66;4956330;28;114845;-61
2022/03/18 00:17:43;;;;;;;13.43;4.30;;;;;;;6.77;47.59;103821.56;4955543;28;124042;-61
2022/03/18 00:20:12;;;;;;;12.80;4.75;;;;;;;6.74;47.59;103837.31;4965356;28;123857;-61
2022/03/18 00:22:42;;;;;;;13.70;4.55;;;;;;;6.69;47.69;103833.69;4963416;28;114096;-61
2022/03/18 00:25:14;;;;;;;13.52;4.10;;;;;;;6.64;47.41;103840.63;4957447;28;113003;-61
2022/03/18 00:27:42;;;;;;;7.13;3.20;;;;;;;6.60;47.69;103838.78;4961115;28;124686;-61
2022/03/18 00:30:12;;;;;;;7.25;3.00;;;;;;;6.56;47.72;103836.94;4959497;28;124201;-61
2022/03/18 00:32:40;;;;;;;7.18;2.95;;;;;;;6.49;47.57;103840.31;4962138;28;114227;-60
2022/03/18 00:35:28;;;;;;;11.20;3.28;;;;;;;6.42;47.69;103840.19;4961003;28;113950;-60
2022/03/18 00:37:55;;;;;;;9.23;3.50;;;;;;;6.37;47.76;103836.56;4964740;28;123945;-60
2022/03/18 00:40:23;;;;;;;9.18;3.22;;;;;;;6.32;48.16;103838.22;4965417;28;122903;-60
2022/03/18 00:42:50;;;;;;;12.50;3.67;;;;;;;6.30;47.79;103847.81;4959774;28;114764;-60
2022/03/18 00:45:17;;;;;;;9.13;3.40;;;;;;;6.25;47.79;103831.03;4960982;28;113918;-60
2022/03/18 00:53:16;;;;;;;11.07;3.50;;;;;;;6.15;48.22;103847.50;4956282;28;114747;-62
2022/03/18 00:55:43;;;;;;;8.45;2.90;;;;;;;6.10;47.78;103851.75;4961141;28;115563;-61
2022/03/18 00:58:11;;;;;;;6.45;3.00;;;;;;;6.07;47.92;103844.69;4959552;28;122947;-61
2022/03/18 01:00:38;;;;;;;6.47;2.88;;;;;;;6.04;48.23;103847.25;4955727;28;123715;-62
2022/03/18 01:03:06;;;;;;;8.73;3.67;;;;;;;6.00;48.23;103851.53;4964679;28;115146;-62
2022/03/18 01:05:34;;;;;;;11.65;3.00;;;;;;;5.97;47.99;103856.75;4970735;28;114300;-62
2022/03/18 01:08:01;;;;;;;7.95;3.20;;;;;;;5.93;48.15;103860.13;4963160;28;123928;-62
2022/03/18 01:10:28;;;;;;;7.15;3.20;;;;;;;5.88;48.64;103861.78;4958194;28;123759;-62
2022/03/18 01:12:55;;;;;;;11.15;3.50;;;;;;;5.85;48.00;103872.22;4958521;28;113883;-62
2022/03/18 01:15:23;;;;;;;12.65;3.65;;;;;;;5.80;48.16;103872.13;4958644;28;114243;-62
2022/03/18 01:17:51;;;;;;;5.57;2.78;;;;;;;5.76;48.28;103872.00;4958742;28;124878;-62
2022/03/18 01:20:18;;;;;;;5.88;2.90;;;;;;;5.73;48.20;103874.56;4949190;28;123442;-62
2022/03/18 01:22:45;;;;;;;6.10;3.10;;;;;;;5.69;48.07;103880.56;4963795;28;114635;-62
2022/03/18 01:25:12;;;;;;;7.97;3.35;;;;;;;5.65;48.42;103879.59;4957657;28;114005;-62
2022/03/18 01:27:40;;;;;;;6.32;2.92;;;;;;;5.61;48.22;103883.94;4960883;28;123899;-60
2022/03/18 01:30:08;;;;;;;7.00;2.88;;;;;;;5.57;48.44;103871.53;4954598;28;123971;-60
2022/03/18 01:32:35;;;;;;;6.53;2.70;;;;;;;5.54;48.25;103876.75;4961866;28;114503;-61
2022/03/18 01:35:03;;;;;;;6.68;3.40;;;;;;;5.49;48.26;103875.72;4962197;28;114320;-61
2022/03/18 01:37:30;;;;;;;9.40;3.50;;;;;;;5.45;48.33;103877.38;4956663;28;125510;-61
2022/03/18 01:39:57;;;;;;;7.93;3.33;;;;;;;5.43;48.28;103883.47;4954267;28;124283;-61
2022/03/18 01:42:25;;;;;;;5.68;3.22;;;;;;;5.41;48.36;103882.53;4957512;28;115062;-61
2022/03/18 01:44:52;;;;;;;7.63;3.40;;;;;;;5.39;48.54;103884.25;4965247;28;113936;-61
2022/03/18 01:47:19;;;;;;;9.40;3.47;;;;;;;5.36;48.47;103877.16;4958348;28;123367;-60
2022/03/18 01:49:46;;;;;;;11.20;3.88;;;;;;;5.34;48.67;103889.34;4963532;28;124554;-61
2022/03/18 01:52:14;;;;;;;7.05;3.25;;;;;;;5.34;48.51;103889.34;4954553;28;114432;-62
2022/03/18 01:54:50;;;;;;;9.10;3.78;;;;;;;5.31;48.72;103889.25;4954806;28;114254;-61
2022/03/18 01:57:19;;;;;;;9.32;3.50;;;;;;;5.29;48.69;103884.84;4954164;28;123939;-61
2022/03/18 01:59:50;;;;;;;5.70;3.30;;;;;;;5.25;48.85;103895.28;4963972;28;123896;-61
2022/03/18 02:02:18;;;;;;;8.82;3.47;;;;;;;5.23;48.74;103891.69;4957799;28;114787;-61
2022/03/18 02:04:46;;;;;;;9.05;3.80;;;;;;;5.21;49.00;103888.16;4960571;28;113946;-61
2022/03/18 02:07:14;;;;;;;10.05;3.70;;;;;;;5.19;48.76;103889.84;4961008;28;124057;-61
2022/03/18 02:09:42;;;;;;;9.70;3.78;;;;;;;5.17;48.84;103896.78;4955111;28;124063;-62
2022/03/18 02:12:09;;;;;;;7.95;3.60;;;;;;;5.15;48.88;103888.00;4952438;28;113893;-61
2022/03/18 02:14:40;;;;;;;11.38;3.50;;;;;;;5.14;49.10;103880.97;4955834;28;113684;-62
2022/03/18 02:17:09;;;;;;;7.75;3.63;;;;;;;5.12;49.06;103872.13;4964424;28;123830;-61
2022/03/18 02:19:38;;;;;;;10.98;4.03;;;;;;;5.11;48.92;103874.75;4953626;28;125255;-62
2022/03/18 02:22:13;;;;;;;8.75;3.45;;;;;;;5.10;49.37;103878.22;4962035;28;115192;-62
2022/03/18 02:24:42;;;;;;;13.10;3.75;;;;;;;5.11;49.25;103875.63;4954418;28;114066;-62
2022/03/18 02:27:10;;;;;;;7.95;3.80;;;;;;;5.11;49.11;103886.13;4950628;28;124594;-61
2022/03/18 02:29:37;;;;;;;7.78;3.20;;;;;;;5.09;49.10;103887.84;4956284;28;124128;-61
2022/03/18 02:32:05;;;;;;;9.00;3.78;;;;;;;5.09;49.26;103892.22;4960156;28;116080;-61
2022/03/18 02:34:34;;;;;;;7.78;3.67;;;;;;;5.07;49.21;103900.03;4957874;28;115611;-62
2022/03/18 02:37:02;;;;;;;6.78;3.35;;;;;;;5.06;49.32;103893.00;4955185;28;124410;-62
2022/03/18 02:39:29;;;;;;;8.38;3.40;;;;;;;5.03;49.25;103903.44;4961285;28;123396;-62
2022/03/18 02:41:56;;;;;;;8.65;3.05;;;;;;;5.00;49.17;103905.97;4962074;28;114198;-61
2022/03/18 02:44:23;;;;;;;8.80;3.67;;;;;;;4.96;49.08;103912.88;4967617;28;114169;-62
2022/03/18 02:46:51;;;;;;;6.45;3.03;;;;;;;4.93;49.32;103917.13;4957174;28;124240;-61
2022/03/18 02:49:23;;;;;;;7.78;3.40;;;;;;;4.90;49.27;103911.78;4974882;28;122797;-61
2022/03/18 02:51:51;;;;;;;6.32;3.35;;;;;;;4.86;49.25;103916.97;4953535;28;114808;-61
2022/03/18 02:54:18;;;;;;;4.80;3.00;;;;;;;4.84;49.06;103921.28;4961745;28;114651;-62
2022/03/18 02:56:45;;;;;;;7.65;3.30;;;;;;;4.82;49.30;103915.13;4949826;28;124577;-62
2022/03/18 02:59:12;;;;;;;7.18;3.00;;;;;;;4.80;49.68;103906.31;4955958;28;124473;-62
2022/03/18 03:01:39;;;;;;;8.63;3.15;;;;;;;4.78;49.61;103918.47;4956422;28;114473;-62
2022/03/18 03:04:07;;;;;;;7.40;3.45;;;;;;;4.77;49.42;103916.72;4953179;28;113989;-62
2022/03/18 03:09:20;;;;;;;5.90;3.30;;;;;;;4.74;49.55;103921.88;4958503;28;123922;-62
2022/03/18 03:11:47;;;;;;;6.28;2.72;;;;;;;4.73;49.43;103925.34;4957506;28;114138;-62
2022/03/18 03:14:15;;;;;;;6.40;2.40;;;;;;;4.72;49.48;103923.56;4959860;28;113874;-63
2022/03/18 03:16:42;;;;;;;5.93;3.03;;;;;;;4.70;49.62;103935.75;4957164;28;123816;-62
2022/03/18 03:19:09;;;;;;;7.43;3.33;;;;;;;4.71;49.57;103942.78;4952930;28;124506;-62
2022/03/18 03:21:37;;;;;;;7.03;3.25;;;;;;;4.71;49.74;103937.53;4960378;28;115299;-62
2022/03/18 03:24:05;;;;;;;5.75;3.17;;;;;;;4.70;49.67;103925.25;4958773;28;115227;-62
2022/03/18 03:26:33;;;;;;;7.38;3.38;;;;;;;4.69;49.63;103939.25;4956454;28;123796;-60
2022/03/18 03:29:00;;;;;;;7.10;3.38;;;;;;;4.69;49.94;103939.25;4957389;28;123669;-61
2022/03/18 03:31:27;;;;;;;7.47;3.28;;;;;;;4.68;49.70;103932.19;4958370;28;114539;-61
2022/03/18 03:33:54;;;;;;;5.45;3.15;;;;;;;4.68;49.77;103948.81;4955153;28;114076;-61
2022/03/18 03:36:23;;;;;;;5.60;2.90;;;;;;;4.67;49.78;103951.41;4961801;28;124146;-61
2022/03/18 03:38:50;;;;;;;7.03;3.17;;;;;;;4.66;50.18;103955.78;4953050;28;124320;-61
2022/03/18 03:41:23;;;;;;;11.50;3.53;;;;;;;4.65;49.91;103953.09;4954421;28;114928;-61
2022/03/18 03:43:50;;;;;;;6.20;3.50;;;;;;;4.64;50.07;103948.69;4966421;28;113699;-61
2022/03/18 03:46:17;;;;;;;10.45;3.47;;;;;;;4.61;49.88;103945.97;4948505;28;124021;-62
2022/03/18 03:48:44;;;;;;;7.75;3.10;;;;;;;4.59;49.69;103943.28;4956651;28;124738;-60
2022/03/18 03:51:12;;;;;;;7.70;2.88;;;;;;;4.60;49.77;103954.72;4963253;28;114230;-61
2022/03/18 03:53:39;;;;;;;5.82;2.90;;;;;;;4.56;50.01;103952.81;4951807;28;113787;-60
2022/03/18 03:56:06;;;;;;;5.95;3.10;;;;;;;4.55;49.68;103961.53;4958136;28;124036;-60
2022/03/18 03:58:33;;;;;;;7.15;3.28;;;;;;;4.52;49.83;103969.31;4954923;28;122954;-61
2022/03/18 04:01:00;;;;;;;6.75;3.13;;;;;;;4.49;49.73;103963.13;4951958;28;113861;-61
2022/03/18 04:03:28;;;;;;;6.55;3.25;;;;;;;4.47;49.94;103963.94;4960237;28;115264;-60
2022/03/18 04:05:55;;;;;;;6.65;3.35;;;;;;;4.45;49.83;103966.50;4955246;28;123952;-61
2022/03/18 04:08:23;;;;;;;9.13;3.95;;;;;;;4.44;49.87;103964.72;4952035;28;123412;-61
2022/03/18 04:10:50;;;;;;;9.27;3.90;;;;;;;4.43;49.93;103967.31;4958311;28;115823;-61
2022/03/18 04:13:17;;;;;;;14.55;4.68;;;;;;;4.41;49.87;103977.75;4954441;28;115345;-60
2022/03/18 04:15:45;;;;;;;10.55;4.18;;;;;;;4.37;49.76;103978.50;4951827;28;124842;-61
2022/03/18 04:18:12;;;;;;;12.00;4.70;;;;;;;4.36;49.99;103981.97;4951802;28;124524;-61
2022/03/18 04:20:39;;;;;;;15.25;4.93;;;;;;;4.34;49.66;103983.66;4957739;28;114017;-61
2022/03/18 04:23:06;;;;;;;10.95;4.72;;;;;;;4.34;49.74;104003.75;4953748;28;113715;-62
2022/03/18 04:25:34;;;;;;;13.70;4.97;;;;;;;4.31;50.11;104004.53;4958887;28;124084;-61
2022/03/18 04:28:01;;;;;;;14.85;5.22;;;;;;;4.30;50.06;104002.78;4952167;28;122574;-61
2022/03/18 04:30:28;;;;;;;18.90;6.07;;;;;;;4.29;50.01;104011.47;4962570;28;114407;-62
2022/03/18 04:32:55;;;;;;;14.60;5.68;;;;;;;4.29;50.09;104016.72;4957274;28;114335;-61
2022/03/18 04:35:23;;;;;;;12.88;5.45;;;;;;;4.28;49.89;104014.94;4956974;28;124653;-61
2022/03/18 04:37:50;;;;;;;16.42;6.00;;;;;;;4.26;50.05;104016.63;4955478;28;122722;-60
2022/03/18 04:40:17;;;;;;;12.93;5.45;;;;;;;4.22;50.10;104019.97;4961837;28;113075;-61
2022/03/18 04:42:45;;;;;;;13.32;5.25;;;;;;;4.21;50.08;104018.22;4958890;28;113834;-60
2022/03/18 04:45:13;;;;;;;13.88;5.45;;;;;;;4.19;50.14;104015.53;4960109;28;123891;-61
2022/03/18 04:47:40;;;;;;;13.73;5.38;;;;;;;4.19;49.96;104017.28;4955351;28;125248;-60
2022/03/18 04:50:08;;;;;;;16.52;5.53;;;;;;;4.19;50.12;104014.66;4955527;28;114500;-60
2022/03/18 04:52:35;;;;;;;12.18;5.22;;;;;;;4.18;50.28;104018.09;4960997;28;113694;-60
2022/03/18 04:55:04;;;;;;;15.48;5.45;;;;;;;4.17;50.13;104026.81;4957142;28;124241;-60
2022/03/18 04:57:31;;;;;;;14.75;5.40;;;;;;;4.18;50.20;104023.34;4958069;28;125565;-61
2022/03/18 04:59:59;;;;;;;13.45;5.03;;;;;;;4.19;50.34;104025.16;4957454;28;118683;-61
2022/03/18 05:02:26;;;;;;;12.30;4.97;;;;;;;4.18;50.38;104028.59;4961259;28;114909;-61
2022/03/18 05:04:54;;;;;;;12.07;4.82;;;;;;;4.18;50.37;104036.47;4959178;28;124296;-61
2022/03/18 05:07:21;;;;;;;13.75;5.03;;;;;;;4.18;50.39;104036.47;4960295;28;124030;-61
2022/03/18 05:09:49;;;;;;;14.38;5.35;;;;;;;4.17;50.46;104045.19;4960015;28;114188;-61
2022/03/18 05:12:17;;;;;;;11.70;4.88;;;;;;;4.18;50.34;104049.56;4962954;28;113410;-61
2022/03/18 05:14:52;;;;;;;9.82;4.40;;;;;;;4.17;50.31;104053.06;4957199;28;124227;-61
2022/03/18 05:17:19;;;;;;;10.88;4.72;;;;;;;4.18;50.51;104060.06;4951096;28;124541;-61
2022/03/18 05:19:46;;;;;;;12.20;4.55;;;;;;;4.16;50.58;104057.38;4954841;28;114322;-61
2022/03/18 05:22:13;;;;;;;14.02;4.57;;;;;;;4.16;50.23;104056.50;4960835;28;114037;-60
2022/03/18 05:24:40;;;;;;;10.07;4.35;;;;;;;4.14;50.23;104058.19;4961686;28;123371;-61
2022/03/18 05:27:07;;;;;;;13.73;4.80;;;;;;;4.13;50.49;104064.28;4952042;28;123793;-61
2022/03/18 05:29:35;;;;;;;7.65;4.00;;;;;;;4.10;50.56;104079.06;4960567;28;114327;-62
2022/03/18 05:32:04;;;;;;;10.45;4.30;;;;;;;4.10;50.48;104084.31;4957360;28;113489;-61
2022/03/18 05:34:32;;;;;;;9.38;4.72;;;;;;;4.08;50.59;104070.25;4956979;28;123809;-61
2022/03/18 05:36:59;;;;;;;8.65;4.25;;;;;;;4.08;50.43;104080.75;4953296;28;122825;-61
2022/03/18 05:39:26;;;;;;;10.48;4.70;;;;;;;4.08;50.45;104080.75;4957611;28;114194;-61
2022/03/18 05:41:54;;;;;;;9.88;4.00;;;;;;;4.06;50.63;104077.19;4949104;28;114424;-61
2022/03/18 05:44:21;;;;;;;12.27;4.30;;;;;;;4.07;50.62;104084.22;4955017;28;123207;-61
2022/03/18 05:46:49;;;;;;;9.07;4.00;;;;;;;4.07;50.68;104084.22;4959492;28;124364;-62
2022/03/18 05:49:17;;;;;;;8.57;3.95;;;;;;;4.05;50.54;104075.41;4956694;28;115260;-61
2022/03/18 05:51:46;;;;;;;9.20;3.85;;;;;;;4.05;50.66;104080.66;4956776;28;115179;-61
2022/03/18 05:54:13;;;;;;;7.82;3.97;;;;;;;4.04;50.45;104078.84;4962382;28;123850;-61
2022/03/18 05:56:53;;;;;;;8.45;3.88;;;;;;;4.04;50.56;104078.84;4937824;28;123672;-61
2022/03/18 05:59:26;;;;;;;11.38;3.83;;;;;;;4.04;51.03;104078.84;4955515;28;114033;-61
2022/03/18 06:01:57;;;;;;;10.25;3.90;;;;;;;4.05;51.00;104080.66;4964999;28;114096;-62
2022/03/18 06:04:25;;;;;;;19.75;4.03;;;;;;;4.07;50.75;104078.97;4956227;28;124141;-62
2022/03/18 06:06:53;;;;;;;9.15;3.95;;;;;;;4.09;50.85;104092.16;4951874;28;124714;-63
2022/03/18 06:12:06;;;;;;;8.55;3.63;;;;;;;4.09;50.72;104093.03;4962291;28;114377;-62
2022/03/18 06:14:34;;;;;;;8.82;3.95;;;;;;;4.09;50.95;104103.53;4956977;28;123889;-62
2022/03/18 06:17:03;;;;;;;6.68;3.95;;;;;;;4.12;50.97;104112.34;4965069;28;123833;-61
2022/03/18 06:19:31;;;;;;;8.95;3.80;;;;;;;4.12;50.89;104109.72;4964820;28;114778;-62
2022/03/18 06:22:00;;;;;;;8.70;3.67;;;;;;;4.12;51.00;104122.81;4962643;28;114498;-62
2022/03/18 06:24:28;;;;;;;9.30;4.30;;;;;;;4.13;51.03;104120.25;4961513;28;124079;-62
2022/03/18 06:26:56;;;;;;;8.75;4.07;;;;;;;4.16;51.04;104124.72;4962416;28;124222;-61
2022/03/18 06:29:23;;;;;;;8.15;4.13;;;;;;;4.17;51.02;104123.88;4960848;28;113940;-61
2022/03/18 06:31:51;;;;;;;7.88;3.95;;;;;;;4.20;51.24;104121.34;4955503;28;113706;-62
2022/03/18 06:34:20;;;;;;;7.07;3.90;;;;;;;4.22;50.96;104119.66;4956050;28;123090;-62
2022/03/18 06:36:50;;;;;;;8.45;4.15;;;;;;;4.25;51.13;104125.91;4960060;28;123592;-61
2022/03/18 06:39:19;;;;;;;9.50;4.20;;;;;;;4.28;51.16;104135.66;4961075;28;115867;-61
2022/03/18 06:41:47;;;;;;;9.00;4.30;;;;;;;4.33;51.36;104139.28;4953614;28;115709;-61
2022/03/18 06:44:15;;;;;;;14.13;5.22;;;;;;;4.37;51.38;104135.97;4953855;28;124496;-62
2022/03/18 06:46:42;;;;;;;11.93;5.10;;;;;;;4.45;51.56;104134.47;4951815;28;123948;-62
2022/03/18 06:49:11;;;;;;;11.15;4.60;;;;;;;4.57;51.61;104138.34;4962943;28;114347;-61
2022/03/18 06:51:39;;;;;;;13.27;4.53;;;;;;;4.71;51.67;104146.66;4955183;28;114126;-61
2022/03/18 06:54:07;;;;;;;12.00;5.13;;;;;;;4.86;52.06;104148.06;4964407;28;123927;-61
2022/03/18 06:56:38;;;;;;;14.13;4.55;;;;;;;5.01;52.08;104145.06;4962082;28;123963;-62
2022/03/18 06:59:06;;;;;;;12.00;5.38;;;;;;;5.19;52.10;104147.34;4954793;28;114322;-61
2022/03/18 07:01:33;;;;;;;14.45;5.30;;;;;;;5.39;52.22;104145.34;4959433;28;114006;-62
2022/03/18 07:04:03;;;;;;;11.70;5.53;;;;;;;5.63;52.70;104150.44;4958242;28;126559;-63
2022/03/18 07:06:30;;;;;;;12.23;5.07;;;;;;;5.85;52.50;104151.03;4957737;28;124149;-61
2022/03/18 07:08:57;;;;;;;11.90;5.10;;;;;;;6.10;52.89;104152.63;4961331;28;113210;-61
2022/03/18 07:11:24;;;;;;;13.02;5.13;;;;;;;6.34;52.60;104157.66;4963001;28;114356;-61
2022/03/18 07:13:53;;;;;;;13.57;4.90;;;;;;;6.61;52.70;104151.28;4959200;28;124436;-62
2022/03/18 07:19:06;;;;;;;10.38;4.97;;;;;;;7.09;52.50;104150.69;4957365;28;114878;-62
2022/03/18 07:21:33;;;;;;;12.55;5.18;;;;;;;7.31;52.41;104161.72;4959358;28;113920;-61
2022/03/18 07:24:01;;;;;;;11.23;4.93;;;;;;;7.50;52.14;104161.28;4956112;28;123857;-60
2022/03/18 07:26:28;;;;;;;14.30;4.70;;;;;;;7.64;51.96;104150.13;4962285;28;124084;-61
2022/03/18 07:28:56;;;;;;;13.18;5.20;;;;;;;7.75;52.34;104159.16;4958199;28;114323;-61
2022/03/18 07:31:23;;;;;;;9.90;5.10;;;;;;;7.86;52.15;104157.63;4953154;28;113935;-61
2022/03/18 07:33:52;;;;;;;11.85;4.90;;;;;;;7.96;51.85;104159.56;4961828;28;124018;-62
2022/03/18 07:36:20;;;;;;;12.68;5.03;;;;;;;8.06;52.23;104159.75;4963709;28;122647;-62
2022/03/18 07:38:47;;;;;;;11.65;5.38;;;;;;;8.16;51.64;104172.28;4956972;28;114604;-63
2022/03/18 07:41:17;;;;;;;10.23;4.68;;;;;;;8.26;52.13;104184.78;4955204;28;114101;-62
2022/03/18 07:43:44;;;;;;;21.65;5.75;;;;;;;8.41;52.08;104188.56;4958785;28;124033;-63
2022/03/18 07:46:12;;;;;;;9.27;5.20;;;;;;;8.50;51.74;104194.06;4951230;28;124214;-63
2022/03/18 07:48:42;;;;;;;10.27;5.68;;;;;;;8.55;51.49;104202.91;4959019;28;114265;-61
2022/03/18 07:51:09;;;;;;;10.48;5.20;;;;;;;8.63;51.85;104206.59;4963426;28;114216;-62
2022/03/18 07:53:37;;;;;;;13.90;5.78;;;;;;;8.69;51.65;104212.00;4959583;28;124646;-63
2022/03/18 07:56:05;;;;;;;9.13;5.03;;;;;;;8.80;52.00;104216.56;4963134;28;124595;-63
2022/03/18 07:58:32;;;;;;;11.23;5.43;;;;;;;8.93;51.88;104210.63;4950349;28;114482;-63
2022/03/18 08:00:59;;;;;;;17.67;5.25;;;;;;;9.08;51.99;104216.16;4948156;28;113824;-63
2022/03/18 08:03:27;;;;;;;13.18;5.00;;;;;;;9.22;51.72;104223.41;4951680;28;124289;-63
2022/03/18 08:05:54;;;;;;;10.32;4.82;;;;;;;9.27;51.35;104216.44;4951280;28;123742;-63
2022/03/18 08:08:25;;;;;;;11.93;4.60;;;;;;;9.34;51.55;104218.28;4953908;28;114569;-63
2022/03/18 08:10:53;;;;;;;11.27;4.80;;;;;;;9.37;51.21;104207.75;4967747;28;112928;-61
2022/03/18 08:13:21;;;;;;;13.85;4.85;;;;;;;9.43;51.61;104223.72;4953946;28;123990;-62
2022/03/18 08:15:49;;;;;;;11.05;4.82;;;;;;;9.50;51.85;104220.28;4951658;28;124171;-62
2022/03/18 08:18:16;;;;;;;12.90;4.50;;;;;;;9.62;51.76;104210.75;4952287;28;115391;-62
2022/03/18 08:20:48;;;;;;;9.52;4.93;;;;;;;9.73;51.78;104217.06;4950245;28;114970;-62
2022/03/18 08:23:16;;;;;;;12.07;5.10;;;;;;;9.88;51.82;104226.97;4952744;28;123010;-62
2022/03/18 08:25:43;;;;;;;10.57;4.15;;;;;;;10.05;51.79;104229.81;4969786;28;123609;-62
2022/03/18 08:28:11;;;;;;;15.23;4.20;;;;;;;10.19;51.85;104230.88;4951482;28;114719;-62
2022/03/18 08:30:40;;;;;;;8.38;4.05;;;;;;;10.33;51.59;104237.22;4954026;28;114243;-62
2022/03/18 08:33:07;;;;;;;7.88;3.83;;;;;;;10.49;52.02;104232.06;4952581;28;124181;-62
2022/03/18 08:35:39;;;;;;;10.82;3.50;;;;;;;10.67;52.00;104239.34;4951400;28;124010;-63
2022/03/18 08:38:08;;;;;;;13.10;3.90;;;;;;;10.84;51.58;104244.78;4951600;28;114334;-62
2022/03/18 08:40:36;;;;;;;9.73;3.20;;;;;;;10.98;51.76;104251.09;4952249;28;112861;-62
2022/03/18 08:43:09;;;;;;;9.23;3.70;;;;;;;11.14;51.57;104251.22;4951940;28;124345;-62
2022/03/18 08:45:36;;;;;;;9.25;3.50;;;;;;;11.28;51.43;104252.19;4959717;28;122995;-63
2022/03/18 08:48:05;;;;;;;9.73;3.35;;;;;;;11.42;51.24;104249.66;4952763;28;113594;-62
2022/03/18 08:50:32;;;;;;;5.63;3.08;;;;;;;11.55;50.73;104261.22;4951818;28;114086;-62
2022/03/18 08:53:00;;;;;;;9.70;3.17;;;;;;;11.64;50.57;104253.28;4953255;28;125109;-62
2022/03/18 08:55:27;;;;;;;6.75;3.00;;;;;;;11.75;50.70;104269.28;4951034;28;124015;-62
2022/03/18 08:57:54;;;;;;;7.30;2.97;;;;;;;11.85;50.18;104266.69;4951180;28;114993;-63
2022/03/18 09:00:22;;;;;;;8.68;3.05;;;;;;;11.95;50.30;104277.41;4951864;28;113873;-62
2022/03/18 09:02:49;;;;;;;8.65;2.92;;;;;;;12.06;50.14;104281.00;4952320;28;124314;-62
2022/03/18 09:05:17;;;;;;;8.15;3.17;;;;;;;12.17;49.92;104273.94;4953810;28;124963;-63
2022/03/18 09:07:45;;;;;;;7.07;2.83;;;;;;;12.27;49.93;104281.06;4953073;28;115884;-62
2022/03/18 09:10:13;;;;;;;10.95;3.22;;;;;;;12.40;49.70;104276.66;4950440;28;115131;-61
2022/03/18 09:12:52;;;;;;;7.70;2.85;;;;;;;12.50;49.36;104277.56;4951447;28;124028;-62
2022/03/18 09:15:19;;;;;;;6.47;2.47;;;;;;;12.60;49.52;104273.16;4950290;28;124239;-62
2022/03/18 09:17:46;;;;;;;9.13;2.58;;;;;;;12.69;49.14;104283.78;4953036;28;114109;-62
2022/03/18 09:20:13;;;;;;;6.03;2.42;;;;;;;12.78;48.99;104282.94;4952730;28;113866;-62
2022/03/18 09:22:41;;;;;;;4.75;2.17;;;;;;;12.87;49.03;104288.28;4951076;28;124172;-62
2022/03/18 09:25:09;;;;;;;7.88;2.53;;;;;;;12.96;48.74;104282.94;4951917;28;123857;-62
2022/03/18 09:27:36;;;;;;;8.20;2.38;;;;;;;13.08;48.74;104291.81;4952029;28;114413;-62
2022/03/18 09:30:11;;;;;;;8.02;2.30;;;;;;;13.17;48.25;104278.50;4948677;28;114064;-62
2022/03/18 09:32:43;;;;;;;5.90;2.30;;;;;;;13.27;48.18;104293.56;4952106;28;124419;-62
2022/03/18 09:35:14;;;;;;;7.47;2.40;;;;;;;13.35;47.82;104297.13;4949505;28;124545;-62
2022/03/18 09:37:43;;;;;;;4.00;1.75;;;;;;;13.42;47.69;104293.59;4950569;28;114598;-62
2022/03/18 09:40:11;;;;;;;8.48;2.35;;;;;;;13.52;47.51;104304.22;4950125;28;114355;-62
2022/03/18 09:43:04;;;;;;;5.88;2.30;;;;;;;13.60;47.30;104305.13;4951210;28;123920;-64
2022/03/18 09:45:34;;;;;;;6.47;2.10;;;;;;;13.68;47.03;104300.66;4949880;28;124031;-62
2022/03/18 09:48:06;;;;;;;3.58;1.90;;;;;;;13.77;46.61;104300.63;4950145;28;114431;-62
2022/03/18 09:50:34;;;;;;;3.80;2.13;;;;;;;13.87;46.73;104300.59;4967219;28;113511;-62
2022/03/18 09:53:02;;;;;;;10.20;2.55;;;;;;;13.98;46.67;104307.66;4951824;28;124124;-62
2022/03/18 09:55:37;;;;;;;5.47;2.08;;;;;;;14.11;46.50;104305.84;4952514;28;124433;-62
2022/03/18 09:58:04;;;;;;;7.85;2.55;;;;;;;14.24;46.24;104300.44;4950114;28;115930;-62
2022/03/18 10:00:31;;;;;;;6.72;2.30;;;;;;;14.34;45.96;104312.84;4950688;28;114461;-62
2022/03/18 10:03:12;;;;;;;8.20;2.10;;;;;;;14.44;45.63;104314.53;4950401;28;123982;-62
2022/03/18 10:05:57;;;;;;;8.30;2.13;;;;;;;14.54;45.18;104318.94;4952158;28;123910;-62
2022/03/18 10:08:37;;;;;;;7.07;2.20;;;;;;;14.63;45.17;104314.47;4949985;28;114936;-62
2022/03/18 10:11:15;;;;;;;6.20;1.98;;;;;;;14.73;44.61;104316.16;4950376;28;113897;-62
2022/03/18 10:13:51;;;;;;;7.85;1.42;;;;;;;14.81;44.44;104314.34;4954436;28;123916;-62
2022/03/18 10:16:33;;;;;;;6.07;1.95;;;;;;;14.91;44.25;104316.03;4954135;28;123963;-63
2022/03/18 10:19:02;;;;;;;6.60;1.73;;;;;;;15.02;44.32;104317.75;4964685;28;113407;-62
2022/03/18 10:21:29;;;;;;;4.60;1.60;;;;;;;15.12;43.84;104320.31;4964135;28;114200;-62
2022/03/18 10:24:06;;;;;;;6.60;1.48;;;;;;;15.22;43.43;104315.81;4969857;28;123328;-62
2022/03/18 10:26:35;;;;;;;5.38;1.80;;;;;;;15.32;42.94;104317.47;4968506;28;123928;-61
2022/03/18 10:29:03;;;;;;;5.40;1.83;;;;;;;15.38;42.80;104317.41;4970949;28;114028;-61
2022/03/18 10:31:31;;;;;;;5.32;1.73;;;;;;;15.47;43.09;104320.94;4969153;28;114033;-61
2022/03/18 10:37:08;;;;;;;5.32;2.05;;;;;;;15.67;42.81;104323.38;4969933;28;123875;-62
2022/03/18 10:39:41;;;;;;;2.95;1.67;;;;;;;15.75;42.71;104317.09;4968389;28;114294;-62
2022/03/18 10:42:14;;;;;;;7.00;1.77;;;;;;;15.84;42.35;104320.53;4963355;28;114315;-62
2022/03/18 10:44:52;;;;;;;7.55;1.88;;;;;;;15.90;42.07;104309.81;4958486;28;124012;-62
2022/03/18 10:47:41;;;;;;;6.50;1.67;;;;;;;15.93;41.56;104320.44;4953192;28;124041;-62
2022/03/18 10:50:11;;;;;;;4.45;1.80;;;;;;;15.96;41.29;104315.06;4962800;28;115303;-62
2022/03/18 10:52:47;;;;;;;6.32;1.75;;;;;;;16.01;41.58;104312.31;4970472;28;113860;-62
2022/03/18 10:55:16;;;;;;;7.47;1.50;;;;;;;16.10;41.44;104328.25;4968598;28;124154;-62
2022/03/18 10:57:53;;;;;;;7.72;1.70;;;;;;;16.18;41.07;104320.13;4972945;28;98557;-62
2022/03/18 11:00:23;;;;;;;6.72;1.77;;;;;;;16.24;41.15;104314.72;4964784;28;114155;-61
2022/03/18 11:02:52;;;;;;;5.30;1.48;;;;;;;16.31;40.67;104308.34;4970773;28;113067;-61
2022/03/18 11:05:21;;;;;;;6.43;1.70;;;;;;;16.39;40.80;104310.94;4969494;28;124653;-62
2022/03/18 11:07:52;;;;;;;5.60;1.73;;;;;;;16.44;40.29;104307.28;4967597;28;123982;-62
2022/03/18 11:13:08;;;;;;;4.25;1.70;;;;;;;16.57;39.91;104307.13;4960867;28;113315;-62
2022/03/18 11:15:39;;;;;;;5.55;1.58;;;;;;;16.63;39.68;104302.56;4949439;28;124441;-62
2022/03/18 11:18:11;;;;;;;7.03;1.60;;;;;;;16.73;39.91;104303.31;4952832;28;125154;-62
2022/03/18 11:20:43;;;;;;;6.57;1.40;;;;;;;16.83;39.61;104293.38;4961526;28;114175;-62
2022/03/18 11:23:19;;;;;;;3.72;1.40;;;;;;;16.88;39.13;104300.41;4971155;28;113960;-62
2022/03/18 11:25:49;;;;;;;4.10;1.52;;;;;;;16.91;38.95;104303.06;4966598;28;123353;-62
2022/03/18 11:28:19;;;;;;;5.10;1.40;;;;;;;16.95;38.86;104298.50;4949862;28;124008;-62
2022/03/18 11:30:48;;;;;;;4.47;1.60;;;;;;;17.00;38.77;104291.28;4950005;28;113017;-62
2022/03/18 11:33:15;;;;;;;3.17;1.60;;;;;;;17.08;38.79;104304.53;4951004;28;114541;-62
2022/03/18 11:35:52;;;;;;;3.53;1.60;;;;;;;17.16;38.63;104301.72;4952710;28;123845;-62
2022/03/18 11:38:30;;;;;;;6.13;1.60;;;;;;;17.22;38.58;104286.44;4963282;28;123959;-62
2022/03/18 11:41:03;;;;;;;6.57;1.83;;;;;;;17.30;38.56;104300.56;4971040;28;115292;-63
2022/03/18 11:43:35;;;;;;;6.07;1.83;;;;;;;17.39;38.41;104299.53;4973581;28;114941;-61
2022/03/18 11:46:15;;;;;;;6.05;1.73;;;;;;;17.42;38.42;104298.56;4974052;28;124632;-62